createdAt,value
2018-03-06T17:53:37.540Z,63.65
2018-03-06T17:56:05.001Z,64.11
2018-03-06T17:58:32.577Z,64.36
2018-03-06T18:01:01.965Z,64.63
2018-03-06T18:03:29.426Z,65.14
2018-03-06T18:05:56.906Z,65.32
2018-03-06T18:08:25.287Z,66.15
2018-03-06T18:10:52.769Z,66.52
2018-03-06T18:13:20.317Z,66.65
2018-03-06T18:15:47.791Z,66.82
2018-03-06T18:18:15.265Z,67.56
2018-03-06T18:20:42.767Z,67.96
2018-03-06T18:23:10.237Z,68.13
2018-03-06T18:27:50.570Z,68.45
2018-03-06T18:30:18.068Z,68.52
2018-03-06T18:32:45.524Z,69.22
2018-03-06T18:35:14.367Z,69.06
2018-03-06T18:37:41.845Z,69.57
2018-03-06T18:40:11.274Z,69.71
2018-03-06T18:42:38.777Z,69.99
2018-03-06T18:45:06.266Z,69.30
2018-03-06T18:47:33.742Z,68.61
2018-03-06T18:50:04.128Z,68.68
2018-03-06T18:52:31.733Z,68.14
2018-03-06T18:54:59.209Z,68.76
2018-03-06T18:57:26.662Z,68.93
2018-03-06T19:03:07.916Z,68.55
2018-03-06T19:05:47.396Z,68.22
2018-03-06T19:08:18.685Z,68.59
2018-03-06T19:10:46.190Z,69.00
2018-03-06T19:13:13.674Z,68.84
2018-03-06T19:15:42.080Z,69.20
2018-03-06T19:18:09.563Z,68.91
2018-03-06T19:20:38.042Z,68.62
2018-03-06T19:23:05.521Z,68.89
2018-03-06T19:25:32.985Z,69.41
2018-03-06T19:28:01.441Z,69.29
2018-03-06T19:30:29.807Z,68.62
2018-03-06T19:32:57.285Z,69.12
2018-03-06T19:35:24.814Z,69.80
2018-03-06T19:37:52.305Z,70.06
2018-03-06T19:40:19.769Z,69.87
2018-03-06T19:42:47.284Z,69.89
2018-03-06T19:45:14.754Z,70.06
2018-03-06T19:47:42.221Z,70.52
2018-03-06T19:50:09.706Z,70.66
2018-03-06T19:52:37.256Z,70.83
2018-03-06T19:55:04.726Z,71.08
2018-03-06T19:57:32.213Z,71.00
2018-03-06T19:59:59.670Z,70.93
2018-03-06T20:02:27.125Z,71.05
2018-03-06T20:04:54.645Z,70.95
2018-03-06T20:07:22.106Z,70.81
2018-03-06T20:09:49.583Z,71.13
2018-03-06T20:12:17.040Z,71.10
2018-03-06T20:17:40.866Z,70.90
2018-03-06T20:20:08.520Z,71.01
2018-03-06T20:22:36.006Z,70.84
2018-03-06T20:25:08.959Z,70.85
2018-03-06T20:27:36.450Z,70.96
2018-03-06T20:30:03.989Z,70.86
2018-03-06T20:32:37.076Z,70.71
2018-03-06T20:35:04.565Z,70.69
2018-03-06T20:37:32.029Z,70.43
2018-03-06T20:40:05.230Z,70.55
2018-03-06T20:42:32.727Z,70.76
2018-03-06T20:45:00.185Z,70.85
2018-03-06T20:47:27.676Z,71.09
2018-03-06T20:49:55.154Z,71.21
2018-03-06T20:52:22.606Z,71.11
2018-03-06T20:54:55.669Z,71.42
2018-03-06T20:57:23.150Z,71.47
2018-03-06T20:59:50.605Z,71.70
2018-03-06T21:02:19.050Z,71.42
2018-03-06T21:04:46.553Z,71.13
2018-03-06T21:07:14.025Z,71.15
2018-03-06T21:09:41.569Z,70.33
2018-03-06T21:12:10.944Z,69.77
2018-03-06T21:14:38.392Z,70.33
2018-03-06T21:17:05.862Z,70.56
2018-03-06T21:19:33.314Z,70.72
2018-03-06T21:22:00.776Z,70.80
2018-03-06T21:24:28.220Z,70.97
2018-03-06T21:26:55.686Z,70.95
2018-03-06T21:29:23.137Z,71.28
2018-03-06T21:31:50.658Z,71.51
2018-03-06T21:34:18.184Z,71.36
2018-03-06T21:36:46.625Z,71.31
2018-03-06T21:39:14.113Z,71.59
2018-03-06T21:41:44.489Z,71.63
2018-03-06T21:44:11.962Z,71.74
2018-03-06T21:46:39.438Z,71.68
2018-03-06T21:49:07.904Z,71.52
2018-03-06T21:51:35.366Z,71.66
2018-03-06T21:54:02.817Z,71.60
2018-03-06T21:56:30.336Z,71.47
2018-03-06T21:58:57.794Z,71.41
2018-03-06T22:01:25.278Z,71.53
2018-03-06T22:03:52.733Z,71.75
2018-03-06T22:06:20.203Z,71.51
2018-03-06T22:08:47.682Z,71.49
2018-03-06T22:11:15.135Z,71.53
2018-03-06T22:13:42.617Z,71.65
2018-03-06T22:16:10.091Z,71.49
2018-03-06T22:18:39.545Z,71.44
2018-03-06T22:21:07.017Z,71.52
2018-03-06T22:23:34.474Z,71.52
2018-03-06T22:26:01.940Z,71.46
2018-03-06T22:28:29.897Z,71.42
2018-03-06T22:30:57.462Z,71.77
2018-03-06T22:33:24.913Z,71.99
2018-03-06T22:35:55.309Z,71.98
2018-03-06T22:38:25.579Z,71.80
2018-03-06T22:40:53.013Z,71.76
2018-03-06T22:43:20.469Z,72.10
2018-03-06T22:45:48.040Z,72.04
2018-03-06T22:48:15.488Z,72.08
2018-03-06T22:50:42.955Z,72.18
2018-03-06T22:53:10.405Z,72.17
2018-03-06T22:55:37.964Z,72.16
2018-03-06T22:58:05.470Z,72.23
2018-03-06T23:00:32.909Z,72.34
2018-03-06T23:03:00.361Z,72.48
2018-03-06T23:05:27.853Z,72.23
2018-03-06T23:07:55.323Z,72.26
2018-03-06T23:10:22.789Z,72.31
2018-03-06T23:12:50.236Z,72.21
2018-03-06T23:15:17.705Z,72.06
2018-03-06T23:17:45.158Z,72.09
2018-03-06T23:20:12.631Z,72.23
2018-03-06T23:22:40.086Z,72.30
2018-03-06T23:25:07.555Z,72.11
2018-03-06T23:27:35.008Z,72.12
2018-03-06T23:30:02.518Z,72.15
2018-03-06T23:32:30.017Z,72.28
2018-03-06T23:34:57.465Z,72.15
2018-03-06T23:37:24.945Z,72.20
2018-03-06T23:39:52.401Z,72.09
2018-03-06T23:42:19.954Z,72.26
2018-03-06T23:44:47.410Z,72.31
2018-03-06T23:47:14.961Z,72.37
2018-03-06T23:49:42.408Z,72.08
2018-03-06T23:52:09.882Z,71.84
2018-03-06T23:54:37.349Z,71.97
2018-03-06T23:57:04.801Z,72.20
2018-03-06T23:59:32.357Z,72.17
